createdAt,value
2022-07-30T00:02:47.413Z,81.51
2022-07-30T00:05:29.701Z,81.84
2022-07-30T00:08:18.703Z,81.15
2022-07-30T00:11:00.723Z,80.70
2022-07-30T00:13:49.711Z,81.81
2022-07-30T00:16:31.779Z,82.01
2022-07-30T00:19:20.412Z,81.26
2022-07-30T00:22:04.153Z,81.89
2022-07-30T00:24:52.414Z,82.36
2022-07-30T00:27:47.254Z,82.68
2022-07-30T00:30:35.491Z,82.18
2022-07-30T00:33:17.684Z,83.10
2022-07-30T00:36:06.651Z,84.40
2022-07-30T00:38:48.707Z,84.24
2022-07-30T00:41:37.378Z,83.45
2022-07-30T00:44:19.707Z,83.29
2022-07-30T00:47:08.404Z,83.08
2022-07-30T00:49:50.601Z,83.07
2022-07-30T00:52:42.439Z,82.53
2022-07-30T00:55:24.926Z,82.28
2022-07-30T00:58:13.466Z,81.66
2022-07-30T01:00:56.787Z,81.11
2022-07-30T01:03:46.689Z,81.16
2022-07-30T01:06:28.922Z,82.20
2022-07-30T01:09:17.414Z,81.46
2022-07-30T01:12:06.402Z,82.23
2022-07-30T01:14:50.446Z,82.04
2022-07-30T01:17:40.641Z,82.29
2022-07-30T01:20:29.893Z,81.67
2022-07-30T01:23:43.255Z,82.25
2022-07-30T01:26:39.232Z,82.29
2022-07-30T01:29:28.383Z,81.58
2022-07-30T01:32:13.547Z,81.62
2022-07-30T01:35:05.382Z,81.41
2022-07-30T01:37:49.915Z,80.71
2022-07-30T01:40:40.397Z,81.93
2022-07-30T01:43:23.787Z,81.60
2022-07-30T01:46:13.608Z,81.56
2022-07-30T01:48:58.763Z,80.69
2022-07-30T01:51:42.423Z,81.24
2022-07-30T01:54:27.870Z,81.08
2022-07-30T01:57:17.657Z,79.93
2022-07-30T02:00:13.633Z,79.53
2022-07-30T02:02:58.415Z,79.78
2022-07-30T02:05:50.676Z,79.24
2022-07-30T02:08:58.428Z,77.86
2022-07-30T02:12:09.366Z,77.62
2022-07-30T02:15:07.433Z,77.88
2022-07-30T02:18:00.068Z,77.86
2022-07-30T02:20:50.433Z,78.66
2022-07-30T02:23:48.925Z,78.09
2022-07-30T02:26:38.630Z,77.29
2022-07-30T02:29:24.013Z,78.49
2022-07-30T02:32:17.412Z,78.30
2022-07-30T02:35:06.697Z,77.55
2022-07-30T02:38:00.379Z,77.13
2022-07-30T02:40:43.579Z,77.49
2022-07-30T02:43:36.253Z,77.60
2022-07-30T02:46:27.663Z,77.19
2022-07-30T02:49:41.197Z,76.26
2022-07-30T02:52:31.278Z,77.78
2022-07-30T02:55:21.640Z,76.87
2022-07-30T02:58:12.471Z,75.92
2022-07-30T03:00:57.172Z,76.21
2022-07-30T03:03:46.643Z,76.81
2022-07-30T03:06:28.934Z,76.20
2022-07-30T03:09:19.765Z,75.95
2022-07-30T03:12:04.332Z,75.13
2022-07-30T03:14:54.420Z,75.99
2022-07-30T03:17:41.623Z,76.26
2022-07-30T03:20:35.412Z,76.23
2022-07-30T03:23:28.711Z,76.88
2022-07-30T03:26:13.399Z,77.45
2022-07-30T03:29:02.903Z,75.84
2022-07-30T03:31:48.458Z,75.82
2022-07-30T03:34:39.456Z,75.67
2022-07-30T03:37:22.895Z,74.56
2022-07-30T03:40:12.398Z,74.28
2022-07-30T03:42:56.274Z,72.97
2022-07-30T03:45:50.634Z,73.14
2022-07-30T03:48:36.214Z,73.03
2022-07-30T03:51:25.369Z,72.52
2022-07-30T03:54:14.883Z,72.74
2022-07-30T03:57:20.823Z,73.29
2022-07-30T04:00:03.248Z,72.97
2022-07-30T04:02:55.381Z,73.58
2022-07-30T04:05:57.612Z,72.47
2022-07-30T04:08:46.645Z,73.54
2022-07-30T04:11:41.272Z,72.35
2022-07-30T04:14:32.380Z,70.02
2022-07-30T04:17:30.740Z,70.53
2022-07-30T04:20:24.643Z,69.82
2022-07-30T04:23:06.802Z,69.26
2022-07-30T04:25:59.404Z,68.68
2022-07-30T04:28:54.288Z,69.78
2022-07-30T04:31:44.929Z,69.52
2022-07-30T04:34:42.630Z,69.92
2022-07-30T04:37:29.970Z,69.73
2022-07-30T04:40:20.398Z,70.70
2022-07-30T04:43:17.926Z,69.53
2022-07-30T04:45:59.440Z,71.25
2022-07-30T04:48:42.845Z,72.40
2022-07-30T04:51:42.406Z,70.54
2022-07-30T04:54:26.983Z,72.02
2022-07-30T04:57:15.556Z,70.29
2022-07-30T04:59:57.772Z,68.67
2022-07-30T05:02:49.652Z,70.17
2022-07-30T05:05:45.625Z,69.94
2022-07-30T05:08:28.013Z,69.36
2022-07-30T05:11:20.659Z,68.88
2022-07-30T05:14:09.364Z,70.28
2022-07-30T05:16:51.970Z,69.30
2022-07-30T05:19:40.453Z,69.41
2022-07-30T05:22:22.939Z,68.31
2022-07-30T05:25:15.784Z,68.81
2022-07-30T05:28:14.485Z,67.86
2022-07-30T05:31:08.104Z,69.32
2022-07-30T05:33:58.274Z,66.71
2022-07-30T05:36:58.781Z,66.34
2022-07-30T05:39:58.789Z,64.85
2022-07-30T05:43:00.388Z,65.27
2022-07-30T05:45:49.811Z,65.46
2022-07-30T05:48:33.264Z,62.97
2022-07-30T05:51:22.645Z,63.54
2022-07-30T05:54:11.443Z,63.78
2022-07-30T05:57:26.648Z,60.88
2022-07-30T06:00:15.055Z,61.55
2022-07-30T06:03:08.659Z,65.23
2022-07-30T06:06:16.740Z,63.82
2022-07-30T06:09:07.395Z,62.14
2022-07-30T06:11:49.912Z,64.44
2022-07-30T06:14:40.379Z,64.22
2022-07-30T06:17:29.818Z,64.63
2022-07-30T06:20:29.405Z,64.89
2022-07-30T06:23:39.445Z,66.54
2022-07-30T06:26:37.381Z,68.50
2022-07-30T06:29:33.493Z,69.20
2022-07-30T06:32:26.372Z,70.57
2022-07-30T06:35:11.385Z,71.49
2022-07-30T06:38:06.780Z,73.70
2022-07-30T06:41:02.831Z,75.20
2022-07-30T06:44:12.437Z,74.68
2022-07-30T06:47:13.095Z,75.70
2022-07-30T06:50:03.637Z,73.48
2022-07-30T06:52:45.694Z,76.45
2022-07-30T06:55:35.663Z,73.59
2022-07-30T06:58:17.653Z,69.52
2022-07-30T07:01:34.696Z,69.59
2022-07-30T07:04:16.767Z,70.17
2022-07-30T07:07:12.727Z,68.52
2022-07-30T07:09:56.091Z,67.82
2022-07-30T07:13:03.418Z,66.98
2022-07-30T07:15:46.135Z,68.21
2022-07-30T07:18:37.373Z,68.76
2022-07-30T07:21:19.938Z,66.05
2022-07-30T07:24:10.432Z,67.54
2022-07-30T07:27:05.035Z,67.02
2022-07-30T07:30:08.430Z,64.11
2022-07-30T07:32:51.530Z,64.77
2022-07-30T07:35:49.727Z,70.31
2022-07-30T07:38:35.814Z,65.11
2022-07-30T07:41:24.406Z,65.32
2022-07-30T07:44:06.797Z,65.88
2022-07-30T07:46:55.670Z,66.36
2022-07-30T07:49:42.712Z,64.29
2022-07-30T07:52:31.398Z,63.83
2022-07-30T07:55:14.683Z,63.18
2022-07-30T07:58:05.697Z,64.54
2022-07-30T08:00:49.011Z,62.75
2022-07-30T08:03:45.394Z,61.80
2022-07-30T08:06:48.148Z,61.88
2022-07-30T08:09:54.380Z,60.96
2022-07-30T08:12:36.939Z,61.17
2022-07-30T08:16:00.624Z,63.31
2022-07-30T08:19:09.651Z,63.18
2022-07-30T08:22:00.308Z,64.76
2022-07-30T08:24:49.375Z,63.68
2022-07-30T08:27:38.667Z,63.90
2022-07-30T08:30:28.732Z,63.64
2022-07-30T08:33:10.900Z,62.25
2022-07-30T08:36:09.155Z,60.68
2022-07-30T08:38:59.635Z,61.97
2022-07-30T08:41:49.942Z,61.93
2022-07-30T08:44:32.616Z,62.83
2022-07-30T08:47:25.972Z,64.65
2022-07-30T08:50:17.647Z,64.50
2022-07-30T08:53:26.410Z,62.69
2022-07-30T08:56:09.980Z,63.53
2022-07-30T08:59:00.406Z,63.75
2022-07-30T09:01:43.090Z,63.76
2022-07-30T09:04:31.399Z,63.40
2022-07-30T09:07:21.653Z,62.82
2022-07-30T09:10:11.010Z,61.48
2022-07-30T09:12:54.625Z,60.23
2022-07-30T09:15:47.080Z,63.93
2022-07-30T09:18:51.693Z,62.99
2022-07-30T09:21:39.867Z,62.15
2022-07-30T09:24:51.396Z,62.53
2022-07-30T09:28:00.077Z,62.34
2022-07-30T09:31:17.499Z,61.66
2022-07-30T09:34:54.425Z,60.75
2022-07-30T09:38:07.660Z,63.51
2022-07-30T09:41:37.781Z,62.34
2022-07-30T09:44:37.648Z,62.05
2022-07-30T09:47:39.850Z,60.98
2022-07-30T09:50:30.686Z,60.53
2022-07-30T09:53:24.378Z,62.46
2022-07-30T09:56:26.681Z,60.94
2022-07-30T09:59:20.640Z,62.05
2022-07-30T10:02:05.192Z,61.67
2022-07-30T10:05:29.625Z,59.75
2022-07-30T10:08:16.756Z,60.68
2022-07-30T10:11:09.575Z,59.97
2022-07-30T10:14:00.493Z,59.74
2022-07-30T10:16:49.624Z,57.45
2022-07-30T10:19:39.791Z,58.53
2022-07-30T10:22:33.383Z,60.79
2022-07-30T10:25:48.998Z,59.80
2022-07-30T10:28:52.675Z,58.92
2022-07-30T10:31:48.333Z,57.96
2022-07-30T10:34:34.426Z,56.99
2022-07-30T10:37:27.390Z,58.71
2022-07-30T10:40:23.025Z,60.00
2022-07-30T10:43:50.640Z,58.94
2022-07-30T10:46:57.934Z,58.77
2022-07-30T10:49:48.676Z,57.64
2022-07-30T10:53:04.615Z,60.76
2022-07-30T10:55:53.816Z,61.57
2022-07-30T10:58:35.274Z,61.45
2022-07-30T11:01:24.401Z,62.12
2022-07-30T11:04:32.521Z,62.78
2022-07-30T11:07:30.496Z,62.68
2022-07-30T11:10:12.554Z,62.03
2022-07-30T11:13:03.654Z,62.33
2022-07-30T11:16:07.605Z,63.86
2022-07-30T11:19:55.907Z,62.46
2022-07-30T11:22:45.674Z,61.59
2022-07-30T11:25:51.705Z,62.87
2022-07-30T11:28:50.131Z,64.21
2022-07-30T11:32:07.496Z,63.22
2022-07-30T11:35:02.391Z,64.18
2022-07-30T11:38:19.647Z,62.47
2022-07-30T11:41:04.915Z,62.56
2022-07-30T11:43:53.378Z,64.03
2022-07-30T11:46:35.830Z,62.45
2022-07-30T11:49:26.424Z,63.93
2022-07-30T11:52:08.858Z,63.68
2022-07-30T11:55:07.393Z,63.12
2022-07-30T11:57:57.614Z,63.22
2022-07-30T12:00:49.014Z,62.96
2022-07-30T12:03:40.325Z,62.89
2022-07-30T12:06:24.448Z,64.27
2022-07-30T12:09:14.613Z,66.28
2022-07-30T12:11:57.727Z,64.99
2022-07-30T12:14:52.634Z,65.36
2022-07-30T12:18:11.019Z,66.41
2022-07-30T12:21:17.965Z,65.46
2022-07-30T12:24:11.363Z,66.06
2022-07-30T12:26:55.022Z,65.81
2022-07-30T12:29:46.653Z,65.95
2022-07-30T12:32:35.211Z,66.95
2022-07-30T12:35:29.364Z,67.94
2022-07-30T12:38:12.198Z,67.78
2022-07-30T12:41:11.393Z,68.58
2022-07-30T12:43:57.613Z,68.98
2022-07-30T12:46:53.322Z,69.47
2022-07-30T12:49:37.614Z,69.47
2022-07-30T12:52:46.378Z,69.31
2022-07-30T12:55:34.521Z,69.90
2022-07-30T12:58:23.652Z,69.35
2022-07-30T13:01:12.730Z,69.46
2022-07-30T13:03:55.420Z,68.95
2022-07-30T13:06:45.006Z,69.15
2022-07-30T13:09:29.608Z,68.30
2022-07-30T13:12:16.126Z,67.72
2022-07-30T13:15:04.369Z,68.04
2022-07-30T13:17:53.422Z,69.71
2022-07-30T13:20:35.661Z,68.51
2022-07-30T13:23:24.403Z,69.42
2022-07-30T13:26:06.795Z,70.32
2022-07-30T13:28:57.623Z,69.77
2022-07-30T13:31:43.801Z,69.17
2022-07-30T13:34:38.367Z,69.47
2022-07-30T13:37:20.843Z,69.79
2022-07-30T13:40:13.397Z,69.93
2022-07-30T13:43:03.731Z,69.58
2022-07-30T13:45:46.384Z,69.22
2022-07-30T13:48:34.979Z,69.33
2022-07-30T13:51:16.633Z,69.03
2022-07-30T13:54:06.021Z,69.93
2022-07-30T13:56:48.364Z,70.33
2022-07-30T13:59:36.797Z,70.78
2022-07-30T14:02:19.351Z,70.48
2022-07-30T14:05:09.090Z,70.49
2022-07-30T14:07:50.498Z,70.97
2022-07-30T14:10:40.613Z,70.51
2022-07-30T14:13:23.335Z,71.14
2022-07-30T14:16:35.395Z,71.62
2022-07-30T14:19:23.166Z,71.51
2022-07-30T14:22:13.636Z,71.97
2022-07-30T14:24:56.104Z,71.43
2022-07-30T14:27:45.604Z,73.03
2022-07-30T14:30:31.538Z,71.96
2022-07-30T14:33:20.613Z,72.01
2022-07-30T14:36:15.470Z,72.09
2022-07-30T14:39:12.604Z,71.41
2022-07-30T14:42:00.784Z,73.14
2022-07-30T14:44:43.620Z,72.35
2022-07-30T14:47:32.031Z,71.85
2022-07-30T14:50:19.694Z,72.33
2022-07-30T14:53:08.611Z,73.24
2022-07-30T14:55:51.017Z,73.17
2022-07-30T14:58:39.359Z,75.13
2022-07-30T15:01:28.655Z,74.21
2022-07-30T15:04:17.872Z,74.68
2022-07-30T15:07:00.377Z,75.09
2022-07-30T15:09:48.692Z,74.89
2022-07-30T15:12:31.458Z,74.35
2022-07-30T15:15:21.038Z,73.39
2022-07-30T15:18:05.635Z,73.63
2022-07-30T15:20:47.953Z,73.16
2022-07-30T15:23:36.614Z,73.09
2022-07-30T15:26:18.642Z,73.26
2022-07-30T15:29:11.624Z,72.75
2022-07-30T15:31:55.476Z,72.20
2022-07-30T15:34:44.361Z,72.36
2022-07-30T15:37:40.344Z,72.95
2022-07-30T15:40:31.461Z,72.81
2022-07-30T15:43:14.034Z,74.27
2022-07-30T15:46:02.384Z,72.91
2022-07-30T15:48:51.644Z,74.06
2022-07-30T15:51:48.524Z,74.40
2022-07-30T15:54:31.413Z,75.15
2022-07-30T15:57:13.685Z,74.66
2022-07-30T16:00:02.388Z,75.02
2022-07-30T16:02:47.939Z,74.77
2022-07-30T16:05:52.058Z,74.72
2022-07-30T16:08:40.696Z,74.28
2022-07-30T16:11:22.374Z,74.39
2022-07-30T16:14:04.452Z,74.66
2022-07-30T16:16:53.611Z,74.26
2022-07-30T16:19:35.755Z,74.42
2022-07-30T16:22:24.632Z,74.38
2022-07-30T16:25:07.370Z,74.61
2022-07-30T16:27:56.376Z,74.19
2022-07-30T16:30:50.915Z,73.95
2022-07-30T16:33:33.847Z,73.46
2022-07-30T16:36:22.367Z,73.10
2022-07-30T16:39:11.606Z,72.76
2022-07-30T16:41:53.910Z,72.73
2022-07-30T16:44:43.590Z,73.37
2022-07-30T16:47:25.507Z,73.17
2022-07-30T16:50:14.364Z,73.00
2022-07-30T16:53:08.543Z,73.19
2022-07-30T16:55:54.604Z,72.37
2022-07-30T16:58:43.592Z,72.85
2022-07-30T17:01:25.884Z,72.43
2022-07-30T17:04:15.650Z,72.44
2022-07-30T17:07:05.365Z,72.11
2022-07-30T17:09:52.466Z,72.71
2022-07-30T17:12:41.405Z,73.03
2022-07-30T17:15:39.609Z,73.28
2022-07-30T17:18:22.855Z,73.35
2022-07-30T17:21:11.392Z,73.52
2022-07-30T17:24:00.610Z,73.42
2022-07-30T17:26:50.643Z,73.25
2022-07-30T17:29:32.617Z,73.48
2022-07-30T17:32:15.892Z,73.57
2022-07-30T17:35:04.393Z,73.88
2022-07-30T17:37:47.020Z,74.34
2022-07-30T17:40:35.598Z,73.71
2022-07-30T17:43:24.425Z,74.42
2022-07-30T17:46:07.349Z,74.41
2022-07-30T17:48:56.461Z,74.07
2022-07-30T17:51:38.772Z,73.88
2022-07-30T17:54:27.381Z,75.38
2022-07-30T17:57:16.587Z,75.00
2022-07-30T18:00:22.357Z,74.92
2022-07-30T18:03:12.045Z,75.37
2022-07-30T18:05:53.617Z,74.46
2022-07-30T18:08:42.714Z,74.27
2022-07-30T18:11:25.373Z,76.21
2022-07-30T18:14:13.566Z,75.42
2022-07-30T18:16:55.352Z,74.73
2022-07-30T18:19:37.952Z,73.98
2022-07-30T18:22:31.784Z,72.41
2022-07-30T18:25:18.002Z,77.64
2022-07-30T18:28:08.358Z,75.70
2022-07-30T18:30:50.839Z,76.30
2022-07-30T18:33:39.619Z,74.05
2022-07-30T18:36:28.612Z,76.34
2022-07-30T18:39:11.811Z,76.24
2022-07-30T18:42:00.846Z,74.68
2022-07-30T18:44:49.616Z,75.22
2022-07-30T18:47:31.936Z,74.37
2022-07-30T18:50:14.653Z,74.92
2022-07-30T18:52:57.313Z,74.79
2022-07-30T18:55:46.595Z,76.09
2022-07-30T18:58:29.039Z,75.57
2022-07-30T19:01:17.577Z,75.88
2022-07-30T19:04:00.102Z,74.83
2022-07-30T19:06:48.600Z,75.89
2022-07-30T19:09:37.611Z,75.91
2022-07-30T19:12:26.241Z,77.88
2022-07-30T19:15:13.966Z,77.15
2022-07-30T19:18:01.780Z,77.26
2022-07-30T19:20:44.348Z,77.97
2022-07-30T19:23:33.383Z,76.92
2022-07-30T19:26:17.582Z,77.60
2022-07-30T19:29:06.424Z,75.90
2022-07-30T19:31:55.609Z,75.58
2022-07-30T19:34:45.033Z,75.23
2022-07-30T19:37:26.370Z,76.51
2022-07-30T19:40:15.658Z,76.31
2022-07-30T19:42:57.619Z,76.99
2022-07-30T19:45:47.434Z,76.72
2022-07-30T19:48:37.588Z,77.47
2022-07-30T19:52:10.379Z,77.60
2022-07-30T19:54:28.906Z,76.80
2022-07-30T19:57:16.595Z,77.72
2022-07-30T20:00:04.100Z,79.04
2022-07-30T20:02:56.415Z,78.90
2022-07-30T20:05:57.623Z,78.87
2022-07-30T20:08:48.382Z,78.58
2022-07-30T20:11:37.610Z,78.98
2022-07-30T20:14:20.662Z,78.28
2022-07-30T20:17:09.608Z,78.92
2022-07-30T20:19:53.690Z,78.36
2022-07-30T20:22:42.358Z,79.39
2022-07-30T20:25:24.686Z,80.70
2022-07-30T20:28:13.372Z,79.73
2022-07-30T20:31:04.373Z,79.79
2022-07-30T20:33:50.252Z,78.77
2022-07-30T20:36:40.349Z,78.44
2022-07-30T20:39:35.430Z,79.08
2022-07-30T20:42:24.717Z,78.44
2022-07-30T20:45:13.354Z,79.01
2022-07-30T20:48:05.888Z,79.39
2022-07-30T20:53:56.354Z,78.36
2022-07-30T20:56:43.237Z,78.97
2022-07-30T20:59:32.581Z,78.88
2022-07-30T21:02:28.276Z,78.77
2022-07-30T21:05:11.060Z,79.14
2022-07-30T21:08:04.603Z,80.28
2022-07-30T21:10:47.628Z,79.31
2022-07-30T21:13:36.376Z,79.51
2022-07-30T21:16:25.365Z,79.13
2022-07-30T21:19:07.787Z,79.13
2022-07-30T21:21:57.607Z,79.17
2022-07-30T21:24:46.378Z,78.38
2022-07-30T21:27:42.350Z,79.50
2022-07-30T21:30:31.585Z,79.46
2022-07-30T21:33:14.627Z,79.12
2022-07-30T21:36:03.358Z,79.44
2022-07-30T21:38:46.946Z,79.10
2022-07-30T21:41:40.048Z,78.75
2022-07-30T21:44:22.531Z,79.97
2022-07-30T21:47:12.607Z,79.57
2022-07-30T21:49:54.854Z,79.71
2022-07-30T21:52:43.610Z,78.75
2022-07-30T21:55:33.330Z,79.05
2022-07-30T21:58:25.734Z,79.80
2022-07-30T22:01:27.379Z,78.83
2022-07-30T22:04:09.543Z,78.83
2022-07-30T22:07:00.526Z,78.13
2022-07-30T22:09:43.547Z,78.60
2022-07-30T22:12:32.604Z,78.56
2022-07-30T22:15:21.354Z,79.43
2022-07-30T22:18:03.752Z,78.54
2022-07-30T22:20:52.368Z,78.86
2022-07-30T22:23:34.650Z,77.41
2022-07-30T22:26:23.594Z,77.63
2022-07-30T22:29:08.801Z,77.03
2022-07-30T22:31:58.620Z,77.13
2022-07-30T22:34:41.929Z,77.06
2022-07-30T22:37:34.864Z,77.83
2022-07-30T22:40:31.394Z,77.78
2022-07-30T22:43:21.662Z,78.36
2022-07-30T22:46:03.460Z,77.73
2022-07-30T22:49:02.922Z,77.24
2022-07-30T22:51:58.771Z,78.36
2022-07-30T22:54:45.833Z,79.01
2022-07-30T22:57:40.224Z,78.37
2022-07-30T23:00:28.252Z,79.31
2022-07-30T23:03:17.227Z,78.60
2022-07-30T23:06:07.401Z,78.54
2022-07-30T23:08:56.878Z,79.22
2022-07-30T23:11:46.599Z,79.16
2022-07-30T23:12:18.627Z,78.93
2022-07-30T23:14:29.585Z,78.95
2022-07-30T23:17:18.356Z,79.60
2022-07-30T23:20:00.716Z,81.10
2022-07-30T23:22:49.377Z,80.01
2022-07-30T23:25:38.560Z,80.27
2022-07-30T23:28:28.574Z,79.90
2022-07-30T23:31:11.812Z,79.98
2022-07-30T23:34:00.359Z,79.80
2022-07-30T23:36:43.690Z,80.45
2022-07-30T23:39:32.344Z,79.87
2022-07-30T23:42:20.857Z,79.80
2022-07-30T23:45:02.247Z,79.55
2022-07-30T23:48:00.714Z,78.80
2022-07-30T23:50:44.670Z,78.77
2022-07-30T23:53:33.362Z,78.89
2022-07-30T23:56:21.648Z,79.15
2022-07-30T23:59:10.232Z,78.69
